RKJK/KUV METAR and TAF weather

Enter ICAO airport designator
Station Type Date Time Source
RKJK METAR 2020/11/27 13:56 UTC NOAA

RKJK 271356Z AUTO 36010KT 10SM BKN037 OVC045 06/M01 A3034 RMK AO2 SLP279 T00581014 FZRANO $


Station Type Date Time Source
RKJK Decoded METAR 2020/11/27 13:56 UTC NOAA

Kunsan Ab, Korea, South (RKJK) 35-55N 126-37E 10M
Nov 27, 2020 - 08:56 AM EST / 2020.11.27 1356 UTC
Wind: from the N (360 degrees) at 12 MPH (10 KT):0
Visibility: 10 mile(s):0
Sky conditions: overcast
Temperature: 42.4 F (5.8 C)
Dew Point: 29.5 F (-1.4 C)
Relative Humidity: 59%
Pressure (altimeter): 30.34 in. Hg (1027 hPa)
ob: RKJK 271356Z AUTO 36010KT 10SM BKN037 OVC045 06/M01 A3034 RMK AO2 SLP279 T00581014 FZRANO
cycle: 14

Station Type Date Time Source
RKJK TAF 2020/11/27 12:09 UTC NOAA

TAF TAF RKJK 271200Z 2712/2818 34012G18KT 9999 BKN040 610402 QNH3032INS
BECMG 2712/2713 34009KT 9999 BKN040 610402 QNH3033INS
BECMG 2800/2801 34012KT 9999 BKN040 610402 QNH3033INS
BECMG 2804/2805 34015G20KT 9999 OVC030 620302 QNH3032INS
BECMG 2814/2815 35009KT 6000 -RA OVC030 620302 QNH3032INS TX06/2802Z TN04/2818Z

Example: see airport list